createdAt,value
2022-10-17T00:01:41.715Z,10.78
2022-10-17T00:04:08.376Z,10.76
2022-10-17T00:06:35.349Z,10.73
2022-10-17T00:09:02.186Z,10.75
2022-10-17T00:11:28.800Z,10.68
2022-10-17T00:13:56.778Z,10.75
2022-10-17T00:16:33.514Z,10.69
2022-10-17T00:19:00.886Z,10.69
2022-10-17T00:21:27.545Z,10.70
2022-10-17T00:23:54.602Z,10.74
2022-10-17T00:26:21.249Z,10.79
2022-10-17T00:28:52.343Z,10.82
2022-10-17T00:31:20.643Z,10.80
2022-10-17T00:33:47.518Z,10.83
2022-10-17T00:36:17.731Z,10.79
2022-10-17T00:38:46.740Z,10.81
2022-10-17T00:41:17.026Z,10.82
2022-10-17T00:44:05.669Z,10.83
2022-10-17T00:46:39.636Z,10.83
2022-10-17T00:49:10.119Z,10.83
2022-10-17T00:52:10.572Z,10.80
2022-10-17T00:54:44.218Z,10.79
2022-10-17T00:57:11.607Z,10.75
2022-10-17T00:59:41.806Z,10.71
2022-10-17T01:02:17.730Z,10.69
2022-10-17T01:04:47.865Z,10.65
2022-10-17T01:07:14.489Z,10.60
2022-10-17T01:09:41.851Z,10.44
2022-10-17T01:12:31.735Z,10.19
2022-10-17T01:15:19.145Z,10.15
2022-10-17T01:18:07.169Z,10.25
2022-10-17T01:20:49.013Z,10.26
2022-10-17T01:23:41.607Z,10.35
2022-10-17T01:26:37.632Z,10.33
2022-10-17T01:29:06.929Z,10.34
2022-10-17T01:32:15.317Z,10.39
2022-10-17T01:35:09.089Z,10.34
2022-10-17T01:40:22.111Z,10.32
2022-10-17T01:42:56.984Z,10.31
2022-10-17T01:45:31.714Z,10.32
2022-10-17T01:48:02.755Z,10.30
2022-10-17T01:50:35.580Z,10.20
2022-10-17T01:53:11.837Z,10.13
2022-10-17T01:55:42.506Z,10.11
2022-10-17T01:58:17.078Z,10.05
2022-10-17T02:00:45.676Z,9.98
2022-10-17T02:03:19.009Z,10.09
2022-10-17T02:05:46.016Z,10.15
2022-10-17T02:08:13.353Z,10.22
2022-10-17T02:11:17.901Z,10.34
2022-10-17T02:13:53.638Z,10.40
2022-10-17T02:16:22.842Z,10.48
2022-10-17T02:19:16.691Z,10.50
2022-10-17T02:22:19.316Z,10.48
2022-10-17T02:25:03.844Z,10.43
2022-10-17T02:28:00.912Z,10.39
2022-10-17T02:30:47.187Z,10.33
2022-10-17T02:33:29.414Z,10.32
2022-10-17T02:36:01.261Z,10.32
2022-10-17T02:38:30.143Z,10.31
2022-10-17T02:40:56.970Z,10.31
2022-10-17T02:43:24.013Z,10.26
2022-10-17T02:45:52.718Z,10.19
2022-10-17T02:48:32.560Z,10.14
2022-10-17T02:51:08.993Z,10.11
2022-10-17T02:53:52.379Z,10.09
2022-10-17T02:56:21.322Z,9.96
2022-10-17T02:58:53.894Z,9.84
2022-10-17T03:01:21.139Z,9.93
2022-10-17T03:03:47.903Z,10.02
2022-10-17T03:06:14.544Z,10.05
2022-10-17T03:08:41.098Z,10.11
2022-10-17T03:11:09.286Z,10.08
2022-10-17T03:13:38.993Z,10.10
2022-10-17T03:16:06.757Z,10.13
2022-10-17T03:18:33.383Z,10.01
2022-10-17T03:20:59.962Z,9.92
2022-10-17T03:23:26.548Z,9.85
2022-10-17T03:25:53.111Z,9.83
2022-10-17T03:28:19.680Z,9.87
2022-10-17T03:30:46.259Z,9.89
2022-10-17T03:33:12.812Z,9.93
2022-10-17T03:35:40.301Z,9.92
2022-10-17T03:38:07.022Z,9.93
2022-10-17T03:40:33.610Z,9.91
2022-10-17T03:43:00.199Z,9.86
2022-10-17T03:45:26.783Z,9.84
2022-10-17T03:47:53.351Z,9.80
2022-10-17T03:50:19.904Z,9.74
2022-10-17T03:52:48.518Z,9.71
2022-10-17T03:55:16.033Z,9.67
2022-10-17T03:57:45.368Z,9.61
2022-10-17T04:00:13.162Z,9.64
2022-10-17T04:02:39.761Z,9.57
2022-10-17T04:05:07.321Z,9.57
2022-10-17T04:07:37.314Z,9.54
2022-10-17T04:10:05.203Z,9.52
2022-10-17T04:12:31.933Z,9.49
2022-10-17T04:14:58.712Z,9.45
2022-10-17T04:17:25.283Z,9.45
2022-10-17T04:19:51.914Z,9.41
2022-10-17T04:22:18.537Z,9.40
2022-10-17T04:24:45.168Z,9.40
2022-10-17T04:27:11.812Z,9.38
2022-10-17T04:29:38.336Z,9.32
2022-10-17T04:32:05.038Z,9.28
2022-10-17T04:34:31.625Z,9.27
2022-10-17T04:36:58.188Z,9.30
2022-10-17T04:39:24.743Z,9.27
2022-10-17T04:41:51.347Z,9.31
2022-10-17T04:44:18.227Z,9.32
2022-10-17T04:46:44.846Z,9.33
2022-10-17T04:49:11.389Z,9.20
2022-10-17T04:51:38.556Z,9.17
2022-10-17T04:54:05.346Z,9.12
2022-10-17T04:56:31.999Z,9.10
2022-10-17T04:58:59.698Z,9.12
2022-10-17T05:01:27.170Z,9.09
2022-10-17T05:03:54.416Z,9.14
2022-10-17T05:06:23.906Z,9.12
2022-10-17T05:08:50.617Z,9.11
2022-10-17T05:11:26.022Z,9.11
2022-10-17T05:14:00.831Z,9.07
2022-10-17T05:16:28.427Z,9.06
2022-10-17T05:18:57.286Z,9.09
2022-10-17T05:21:25.687Z,9.07
2022-10-17T05:23:52.689Z,9.06
2022-10-17T05:26:19.816Z,9.05
2022-10-17T05:28:46.583Z,9.04
2022-10-17T05:31:13.434Z,9.07
2022-10-17T05:33:40.274Z,9.08
2022-10-17T05:36:07.735Z,9.09
2022-10-17T05:38:34.487Z,9.09
2022-10-17T05:41:03.271Z,9.14
2022-10-17T05:43:31.061Z,9.14
2022-10-17T05:45:58.008Z,9.16
2022-10-17T05:48:25.432Z,9.22
2022-10-17T05:50:59.446Z,9.32
2022-10-17T05:53:26.454Z,9.40
2022-10-17T05:56:01.314Z,9.41
2022-10-17T06:01:15.118Z,9.53
2022-10-17T06:03:41.721Z,9.60
2022-10-17T06:06:13.136Z,9.69
2022-10-17T06:08:39.784Z,9.77
2022-10-17T06:11:09.873Z,9.92
2022-10-17T06:13:38.029Z,9.97
2022-10-17T06:16:04.930Z,10.04
2022-10-17T06:18:32.383Z,10.23
2022-10-17T06:21:07.034Z,10.42
2022-10-17T06:23:33.981Z,10.64
2022-10-17T06:26:01.938Z,10.82
2022-10-17T06:28:29.009Z,11.09
2022-10-17T06:30:55.973Z,11.32
2022-10-17T06:33:23.481Z,12.05
2022-10-17T06:35:57.026Z,12.59
2022-10-17T06:38:23.660Z,12.94
2022-10-17T06:40:50.249Z,13.26
2022-10-17T06:43:16.797Z,13.56
2022-10-17T06:45:45.696Z,14.34
2022-10-17T06:48:12.666Z,15.31
2022-10-17T06:50:39.500Z,16.03
2022-10-17T06:53:06.106Z,16.71
2022-10-17T06:55:33.027Z,17.52
2022-10-17T06:57:59.612Z,18.08
2022-10-17T07:00:26.950Z,18.62
2022-10-17T07:02:53.560Z,18.80
2022-10-17T07:05:20.220Z,18.95
2022-10-17T07:07:48.586Z,19.57
2022-10-17T07:10:18.468Z,20.48
2022-10-17T07:12:45.981Z,21.15
2022-10-17T07:15:13.326Z,21.66
2022-10-17T07:17:40.201Z,21.95
2022-10-17T07:20:07.608Z,22.05
2022-10-17T07:22:34.259Z,22.08
2022-10-17T07:25:00.820Z,23.00
2022-10-17T07:27:27.913Z,22.77
2022-10-17T07:29:54.758Z,23.07
2022-10-17T07:32:21.352Z,22.87
2022-10-17T07:34:48.931Z,23.15
2022-10-17T07:37:15.567Z,23.12
2022-10-17T07:39:42.124Z,23.34
2022-10-17T07:42:09.014Z,24.09
2022-10-17T07:44:35.929Z,24.92
2022-10-17T07:47:02.706Z,25.33
2022-10-17T07:49:29.514Z,25.41
2022-10-17T07:51:56.172Z,25.22
2022-10-17T07:54:23.157Z,24.99
2022-10-17T07:56:50.917Z,25.57
2022-10-17T07:59:20.368Z,24.73
2022-10-17T08:01:47.382Z,25.11
2022-10-17T08:04:16.947Z,24.68
2022-10-17T08:06:43.614Z,24.06
2022-10-17T08:09:10.183Z,23.94
2022-10-17T08:11:37.356Z,23.66
2022-10-17T08:14:04.110Z,23.29
2022-10-17T08:16:31.145Z,23.03
2022-10-17T08:18:57.860Z,24.07
2022-10-17T08:21:24.545Z,24.11
2022-10-17T08:23:51.187Z,24.69
2022-10-17T08:26:20.122Z,24.61
2022-10-17T08:28:47.869Z,25.22
2022-10-17T08:31:19.768Z,25.18
2022-10-17T08:33:48.218Z,25.09
2022-10-17T08:36:17.834Z,25.49
2022-10-17T08:38:47.959Z,25.66
2022-10-17T08:41:47.523Z,25.78
2022-10-17T08:44:33.379Z,26.14
2022-10-17T08:47:02.244Z,25.62
2022-10-17T08:49:55.899Z,25.71
2022-10-17T08:52:43.096Z,25.29
2022-10-17T08:55:29.582Z,24.84
2022-10-17T08:57:56.269Z,25.47
2022-10-17T09:00:22.989Z,25.69
2022-10-17T09:03:32.781Z,26.49
2022-10-17T09:06:15.112Z,27.02
2022-10-17T09:08:55.445Z,27.14
2022-10-17T09:12:13.034Z,26.98
2022-10-17T09:15:03.107Z,26.94
2022-10-17T09:17:53.492Z,28.17
2022-10-17T09:20:28.117Z,27.90
2022-10-17T09:23:02.509Z,27.54
2022-10-17T09:25:39.845Z,27.40
2022-10-17T09:28:24.249Z,27.57
2022-10-17T09:30:59.721Z,27.99
2022-10-17T09:33:35.954Z,27.11
2022-10-17T09:36:18.007Z,27.10
2022-10-17T09:38:56.243Z,26.63
2022-10-17T09:41:47.453Z,26.72
2022-10-17T09:44:33.164Z,25.93
2022-10-17T09:47:17.994Z,25.78
2022-10-17T09:49:47.485Z,26.19
2022-10-17T09:52:19.234Z,27.29
2022-10-17T09:54:49.299Z,27.88
2022-10-17T09:57:18.132Z,28.25
2022-10-17T09:59:48.846Z,27.98
2022-10-17T10:02:25.103Z,26.87
2022-10-17T10:05:03.645Z,27.58
2022-10-17T10:07:39.214Z,27.66
2022-10-17T10:10:22.660Z,27.67
2022-10-17T10:13:14.143Z,26.75
2022-10-17T10:15:44.692Z,26.74
2022-10-17T10:18:26.653Z,26.05
2022-10-17T10:21:16.057Z,25.81
2022-10-17T10:23:45.482Z,26.40
2022-10-17T10:26:23.569Z,27.16
2022-10-17T10:28:58.827Z,27.77
2022-10-17T10:31:42.832Z,26.98
2022-10-17T10:34:20.651Z,26.97
2022-10-17T10:37:17.242Z,27.29
2022-10-17T10:39:59.428Z,26.97
2022-10-17T10:42:39.535Z,26.78
2022-10-17T10:45:35.991Z,26.69
2022-10-17T10:48:26.761Z,26.63
2022-10-17T10:51:04.505Z,26.84
2022-10-17T10:53:44.365Z,27.10
2022-10-17T10:56:49.875Z,27.71
2022-10-17T10:59:43.305Z,26.11
2022-10-17T11:02:25.350Z,26.30
2022-10-17T11:05:13.767Z,26.05
2022-10-17T11:08:08.068Z,25.56
2022-10-17T11:10:41.448Z,25.65
2022-10-17T11:13:18.123Z,25.57
2022-10-17T11:15:51.621Z,25.58
2022-10-17T11:18:18.113Z,25.92
2022-10-17T11:21:13.415Z,26.58
2022-10-17T11:23:48.824Z,26.43
2022-10-17T11:26:28.117Z,25.72
2022-10-17T11:28:56.487Z,25.31
2022-10-17T11:31:26.978Z,25.48
2022-10-17T11:34:03.881Z,25.85
2022-10-17T11:36:34.720Z,25.78
2022-10-17T11:39:09.186Z,26.15
2022-10-17T11:42:03.242Z,26.00
2022-10-17T11:44:42.953Z,25.81
2022-10-17T11:47:28.399Z,25.61
2022-10-17T11:52:59.936Z,24.23
2022-10-17T11:55:29.561Z,24.19
2022-10-17T11:58:14.458Z,24.26
2022-10-17T12:00:51.485Z,24.29
2022-10-17T12:03:18.036Z,24.18
2022-10-17T12:05:58.978Z,23.93
2022-10-17T12:08:44.511Z,23.51
2022-10-17T12:11:45.906Z,23.83
2022-10-17T12:14:36.118Z,24.15
2022-10-17T12:17:04.346Z,24.26
2022-10-17T12:19:36.702Z,24.18
2022-10-17T12:22:41.649Z,24.24
2022-10-17T12:25:19.137Z,24.20
2022-10-17T12:27:48.623Z,24.21
2022-10-17T12:30:19.977Z,24.40
2022-10-17T12:33:07.952Z,24.40
2022-10-17T12:35:37.199Z,24.45
2022-10-17T12:38:21.079Z,24.48
2022-10-17T12:41:07.869Z,24.61
2022-10-17T12:43:44.763Z,24.60
2022-10-17T12:46:12.342Z,24.56
2022-10-17T12:48:39.064Z,24.62
2022-10-17T12:54:16.641Z,24.63
2022-10-17T12:56:48.120Z,24.58
2022-10-17T12:59:22.552Z,24.51
2022-10-17T13:01:55.087Z,24.45
2022-10-17T13:04:22.614Z,24.52
2022-10-17T13:06:54.471Z,24.57
2022-10-17T13:09:32.706Z,24.54
2022-10-17T13:12:03.750Z,24.45
2022-10-17T13:14:33.371Z,24.49
2022-10-17T13:17:04.241Z,24.50
2022-10-17T13:19:40.144Z,24.60
2022-10-17T13:22:21.322Z,24.80
2022-10-17T13:24:49.027Z,24.91
2022-10-17T13:27:29.802Z,24.92
2022-10-17T13:29:58.354Z,24.73
2022-10-17T13:32:27.269Z,24.73
2022-10-17T13:35:07.462Z,24.72
2022-10-17T13:37:35.777Z,24.57
2022-10-17T13:40:17.520Z,24.53
2022-10-17T13:42:52.410Z,24.45
2022-10-17T13:45:34.407Z,24.37
2022-10-17T13:48:08.268Z,24.36
2022-10-17T13:50:45.034Z,24.30
2022-10-17T13:53:17.461Z,24.32
2022-10-17T13:56:26.797Z,24.43
2022-10-17T13:58:57.736Z,24.32
2022-10-17T14:01:30.872Z,24.21
2022-10-17T14:04:08.861Z,24.17
2022-10-17T14:06:45.200Z,24.20
2022-10-17T14:09:26.706Z,24.15
2022-10-17T14:12:02.444Z,24.10
2022-10-17T14:14:46.064Z,24.10
2022-10-17T14:17:28.819Z,24.06
2022-10-17T14:20:34.522Z,24.00
2022-10-17T14:23:10.811Z,24.01
2022-10-17T14:25:43.283Z,23.98
2022-10-17T14:28:13.982Z,23.95
2022-10-17T14:31:01.690Z,23.90
2022-10-17T14:33:32.102Z,23.87
2022-10-17T14:36:01.970Z,23.82
2022-10-17T14:38:30.086Z,23.77
2022-10-17T14:41:37.347Z,23.77
2022-10-17T14:44:07.537Z,23.72
2022-10-17T14:46:37.962Z,23.62
2022-10-17T14:49:21.802Z,23.59
2022-10-17T14:52:23.683Z,23.50
2022-10-17T14:54:50.420Z,23.40
2022-10-17T14:57:27.477Z,23.34
2022-10-17T14:59:56.382Z,23.25
2022-10-17T15:02:29.232Z,23.15
2022-10-17T15:04:56.284Z,23.06
2022-10-17T15:07:24.003Z,23.02
2022-10-17T15:09:52.884Z,22.97
2022-10-17T15:12:25.296Z,22.89
2022-10-17T15:14:53.317Z,22.81
2022-10-17T15:17:30.236Z,22.79
2022-10-17T15:19:59.404Z,22.67
2022-10-17T15:22:26.645Z,22.58
2022-10-17T15:24:53.492Z,22.50
2022-10-17T15:27:25.955Z,22.43
2022-10-17T15:29:53.208Z,22.35
2022-10-17T15:32:19.917Z,22.26
2022-10-17T15:34:46.697Z,22.18
2022-10-17T15:37:18.953Z,22.11
2022-10-17T15:39:53.361Z,22.09
2022-10-17T15:42:23.207Z,21.98
2022-10-17T15:44:50.471Z,21.83
2022-10-17T15:47:23.540Z,21.72
2022-10-17T15:49:50.400Z,21.60
2022-10-17T15:52:17.031Z,21.49
2022-10-17T15:54:43.613Z,21.37
2022-10-17T15:57:18.260Z,21.25
2022-10-17T15:59:47.113Z,21.17
2022-10-17T16:02:15.821Z,21.04
2022-10-17T16:04:43.380Z,20.96
2022-10-17T16:07:10.847Z,20.90
2022-10-17T16:09:37.613Z,20.83
2022-10-17T16:12:06.411Z,20.73
2022-10-17T16:14:33.251Z,20.70
2022-10-17T16:17:00.397Z,20.69
2022-10-17T16:19:30.107Z,20.64
2022-10-17T16:21:59.670Z,20.60
2022-10-17T16:24:28.825Z,20.53
2022-10-17T16:26:55.395Z,20.47
2022-10-17T16:29:21.982Z,20.44
2022-10-17T16:31:48.571Z,20.36
2022-10-17T16:34:16.021Z,20.25
2022-10-17T16:36:42.947Z,20.20
2022-10-17T16:39:09.802Z,20.10
2022-10-17T16:41:38.365Z,20.00
2022-10-17T16:44:10.863Z,19.94
2022-10-17T16:46:37.795Z,19.85
2022-10-17T16:49:07.791Z,19.77
2022-10-17T16:51:35.990Z,19.72
2022-10-17T16:54:04.662Z,19.63
2022-10-17T16:56:32.919Z,19.62
2022-10-17T16:59:00.813Z,19.60
2022-10-17T17:01:29.429Z,19.52
2022-10-17T17:03:56.959Z,19.49
2022-10-17T17:06:28.379Z,19.43
2022-10-17T17:08:56.456Z,19.34
2022-10-17T17:11:25.822Z,19.30
2022-10-17T17:13:54.803Z,19.22
2022-10-17T17:16:23.449Z,19.22
2022-10-17T17:18:55.410Z,19.17
2022-10-17T17:21:22.493Z,19.13
2022-10-17T17:23:49.153Z,19.10
2022-10-17T17:26:18.583Z,19.03
2022-10-17T17:28:45.876Z,18.96
2022-10-17T17:31:23.878Z,18.85
2022-10-17T17:33:51.823Z,18.89
2022-10-17T17:36:22.732Z,18.90
2022-10-17T17:38:51.301Z,18.87
2022-10-17T17:41:20.215Z,18.90
2022-10-17T17:43:48.049Z,18.94
2022-10-17T17:46:17.083Z,18.86
2022-10-17T17:48:44.900Z,18.86
2022-10-17T17:51:13.743Z,18.86
2022-10-17T17:53:40.492Z,18.85
2022-10-17T17:56:14.294Z,18.85
2022-10-17T17:58:45.884Z,18.86
2022-10-17T18:01:18.343Z,18.82
2022-10-17T18:03:45.850Z,18.86
2022-10-17T18:06:12.901Z,18.86
2022-10-17T18:08:40.163Z,18.83
2022-10-17T18:11:06.747Z,18.74
2022-10-17T18:13:33.324Z,18.75
2022-10-17T18:16:01.621Z,18.69
2022-10-17T18:18:30.632Z,18.63
2022-10-17T18:21:00.945Z,18.60
2022-10-17T18:23:27.553Z,18.57
2022-10-17T18:25:58.480Z,18.55
2022-10-17T18:28:25.270Z,18.50
2022-10-17T18:30:52.485Z,18.47
2022-10-17T18:33:19.127Z,18.43
2022-10-17T18:35:46.087Z,18.41
2022-10-17T18:38:12.857Z,18.31
2022-10-17T18:40:39.499Z,18.31
2022-10-17T18:43:06.524Z,18.27
2022-10-17T18:45:33.525Z,18.23
2022-10-17T18:48:01.611Z,18.21
2022-10-17T18:50:29.582Z,18.17
2022-10-17T18:52:56.242Z,18.14
2022-10-17T18:55:22.885Z,18.08
2022-10-17T18:57:50.498Z,18.13
2022-10-17T19:00:17.618Z,18.07
2022-10-17T19:02:49.501Z,18.04
2022-10-17T19:05:16.145Z,18.00
2022-10-17T19:07:42.715Z,17.97
2022-10-17T19:10:09.547Z,17.89
2022-10-17T19:12:37.146Z,17.85
2022-10-17T19:15:04.162Z,17.76
2022-10-17T19:17:31.150Z,17.68
2022-10-17T19:19:58.303Z,17.58
2022-10-17T19:22:24.947Z,17.50
2022-10-17T19:24:51.624Z,17.44
2022-10-17T19:27:20.866Z,17.38
2022-10-17T19:29:47.578Z,17.30
2022-10-17T19:32:17.895Z,17.19
2022-10-17T19:34:47.389Z,17.13
2022-10-17T19:37:14.814Z,17.07
2022-10-17T19:39:41.504Z,16.99
2022-10-17T19:42:09.551Z,16.93
2022-10-17T19:44:36.279Z,16.83
2022-10-17T19:47:02.869Z,16.76
2022-10-17T19:49:29.582Z,16.72
2022-10-17T19:52:03.856Z,16.68
2022-10-17T19:54:30.567Z,16.53
2022-10-17T19:56:57.529Z,16.44
2022-10-17T20:01:53.352Z,16.26
2022-10-17T20:04:22.268Z,16.18
2022-10-17T20:06:49.014Z,16.16
2022-10-17T20:09:17.245Z,16.15
2022-10-17T20:11:44.418Z,16.21
2022-10-17T20:14:11.203Z,16.26
2022-10-17T20:16:39.594Z,16.26
2022-10-17T20:19:11.385Z,16.26
2022-10-17T20:21:40.944Z,16.22
2022-10-17T20:24:11.129Z,16.12
2022-10-17T20:26:39.441Z,16.02
2022-10-17T20:29:13.328Z,15.94
2022-10-17T20:31:41.439Z,15.83
2022-10-17T20:34:12.007Z,15.70
2022-10-17T20:36:38.655Z,15.64
2022-10-17T20:39:06.560Z,15.46
2022-10-17T20:41:33.806Z,15.26
2022-10-17T20:44:00.455Z,15.31
2022-10-17T20:46:36.988Z,15.44
2022-10-17T20:49:07.137Z,15.68
2022-10-17T20:51:34.745Z,15.77
2022-10-17T20:54:02.939Z,15.79
2022-10-17T20:56:31.482Z,15.72
2022-10-17T20:59:00.566Z,15.56
2022-10-17T21:01:28.907Z,15.40
2022-10-17T21:03:58.901Z,15.25
2022-10-17T21:06:27.977Z,15.18
2022-10-17T21:08:56.069Z,15.29
2022-10-17T21:11:25.238Z,15.31
2022-10-17T21:14:18.398Z,15.27
2022-10-17T21:16:46.285Z,15.01
2022-10-17T21:19:13.951Z,14.91
2022-10-17T21:21:44.199Z,14.88
2022-10-17T21:24:14.634Z,14.93
2022-10-17T21:26:42.720Z,15.03
2022-10-17T21:29:12.070Z,15.05
2022-10-17T21:31:42.531Z,15.05
2022-10-17T21:34:18.917Z,15.07
2022-10-17T21:36:46.009Z,15.07
2022-10-17T21:39:14.455Z,15.06
2022-10-17T21:41:42.219Z,15.11
2022-10-17T21:44:14.751Z,15.16
2022-10-17T21:46:41.603Z,15.23
2022-10-17T21:49:10.885Z,15.41
2022-10-17T21:51:37.855Z,15.46
2022-10-17T21:54:06.055Z,15.45
2022-10-17T21:56:34.866Z,15.46
2022-10-17T21:59:01.700Z,15.39
2022-10-17T22:01:34.900Z,15.31
2022-10-17T22:04:04.673Z,15.20
2022-10-17T22:06:39.739Z,15.15
2022-10-17T22:09:14.450Z,15.08
2022-10-17T22:11:41.785Z,14.98
2022-10-17T22:14:12.278Z,14.91
2022-10-17T22:16:39.318Z,14.84
2022-10-17T22:19:07.443Z,14.84
2022-10-17T22:21:36.129Z,14.88
2022-10-17T22:24:06.003Z,14.93
2022-10-17T22:26:35.107Z,14.99
2022-10-17T22:29:02.061Z,15.10
2022-10-17T22:31:28.929Z,15.24
2022-10-17T22:33:57.093Z,15.31
2022-10-17T22:36:24.267Z,15.35
2022-10-17T22:38:50.986Z,15.39
2022-10-17T22:41:17.609Z,15.39
2022-10-17T22:43:44.684Z,15.32
2022-10-17T22:46:13.388Z,15.25
2022-10-17T22:48:42.753Z,15.13
2022-10-17T22:51:09.419Z,15.03
2022-10-17T22:53:37.462Z,14.99
2022-10-17T22:56:07.361Z,14.93
2022-10-17T22:58:35.682Z,14.77
2022-10-17T23:01:03.247Z,14.69
2022-10-17T23:03:30.669Z,14.58
2022-10-17T23:05:57.821Z,14.48
2022-10-17T23:08:25.360Z,14.39
2022-10-17T23:10:52.052Z,14.23
2022-10-17T23:13:21.397Z,14.02
2022-10-17T23:15:55.721Z,13.95
2022-10-17T23:18:23.551Z,13.81
2022-10-17T23:20:51.050Z,13.76
2022-10-17T23:23:18.654Z,13.68
2022-10-17T23:25:46.042Z,13.58
2022-10-17T23:28:12.818Z,13.44
2022-10-17T23:30:39.630Z,13.30
2022-10-17T23:33:09.314Z,13.21
2022-10-17T23:35:36.204Z,13.19
2022-10-17T23:38:03.378Z,13.13
2022-10-17T23:40:30.334Z,13.06
2022-10-17T23:42:56.954Z,13.07
2022-10-17T23:45:23.785Z,13.11
2022-10-17T23:47:50.377Z,12.99
2022-10-17T23:50:17.085Z,12.91
2022-10-17T23:52:43.798Z,12.81
2022-10-17T23:55:11.156Z,12.72
2022-10-17T23:57:37.775Z,12.65
